createdAt,value
2023-04-10T00:01:26.226Z,93.18
2023-04-10T00:03:54.393Z,95.55
2023-04-10T00:06:22.476Z,98.08
2023-04-10T00:08:50.411Z,96.19
2023-04-10T00:11:19.514Z,95.67
2023-04-10T00:13:47.324Z,95.43
2023-04-10T00:16:15.691Z,96.21
2023-04-10T00:18:43.488Z,97.42
2023-04-10T00:21:11.234Z,96.01
2023-04-10T00:23:38.977Z,96.15
2023-04-10T00:26:07.158Z,95.86
2023-04-10T00:28:38.061Z,98.32
2023-04-10T00:31:06.373Z,98.49
2023-04-10T00:33:34.118Z,100.00
2023-04-10T00:36:02.993Z,100.00
2023-04-10T00:38:31.052Z,98.94
2023-04-10T00:40:58.766Z,99.92
2023-04-10T00:43:27.445Z,100.00
2023-04-10T00:45:56.536Z,100.00
2023-04-10T00:48:24.573Z,100.00
2023-04-10T00:50:52.367Z,100.00
2023-04-10T00:53:20.310Z,100.00
2023-04-10T00:55:48.645Z,100.00
2023-04-10T00:58:16.482Z,100.00
2023-04-10T01:00:44.959Z,100.00
2023-04-10T01:03:16.158Z,100.00
2023-04-10T01:05:51.370Z,100.00
2023-04-10T01:08:27.812Z,100.00
2023-04-10T01:11:06.304Z,100.00
2023-04-10T01:13:39.848Z,100.00
2023-04-10T01:16:16.258Z,100.00
2023-04-10T01:18:52.056Z,100.00
2023-04-10T01:21:22.473Z,100.00
2023-04-10T01:24:16.134Z,100.00
2023-04-10T01:26:59.567Z,100.00
2023-04-10T01:29:31.454Z,100.00
2023-04-10T01:32:03.894Z,100.00
2023-04-10T01:34:37.917Z,100.00
2023-04-10T01:37:12.278Z,100.00
2023-04-10T01:39:42.695Z,100.00
2023-04-10T01:42:15.387Z,100.00
2023-04-10T01:44:48.192Z,100.00
2023-04-10T01:47:18.156Z,100.00
2023-04-10T01:49:48.077Z,100.00
2023-04-10T01:52:17.539Z,100.00
2023-04-10T01:54:50.537Z,100.00
2023-04-10T01:57:25.564Z,100.00
2023-04-10T02:00:00.563Z,100.00
2023-04-10T02:02:32.091Z,100.00
2023-04-10T02:05:00.225Z,100.00
2023-04-10T02:07:36.673Z,100.00
2023-04-10T02:10:16.891Z,100.00
2023-04-10T02:12:50.549Z,100.00
2023-04-10T02:15:21.233Z,100.00
2023-04-10T02:17:50.589Z,100.00
2023-04-10T02:20:19.350Z,100.00
2023-04-10T02:22:47.754Z,100.00
2023-04-10T02:25:15.949Z,100.00
2023-04-10T02:27:43.744Z,100.00
2023-04-10T02:30:12.298Z,100.00
2023-04-10T02:32:42.032Z,98.48
2023-04-10T02:35:10.274Z,97.45
2023-04-10T02:37:38.642Z,96.13
2023-04-10T02:40:07.865Z,97.85
2023-04-10T02:42:45.291Z,98.55
2023-04-10T02:45:13.559Z,97.79
2023-04-10T02:47:45.315Z,98.92
2023-04-10T02:50:13.116Z,98.43
2023-04-10T02:52:45.544Z,99.52
2023-04-10T02:55:13.443Z,100.00
2023-04-10T02:57:42.541Z,100.00
2023-04-10T03:00:11.617Z,100.00
2023-04-10T03:02:59.498Z,100.00
2023-04-10T03:05:32.762Z,100.00
2023-04-10T03:08:00.504Z,100.00
2023-04-10T03:10:29.188Z,100.00
2023-04-10T03:12:57.049Z,100.00
2023-04-10T03:15:25.353Z,100.00
2023-04-10T03:17:53.262Z,100.00
2023-04-10T03:20:22.978Z,100.00
2023-04-10T03:22:51.072Z,100.00
2023-04-10T03:25:18.975Z,100.00
2023-04-10T03:27:47.125Z,100.00
2023-04-10T03:30:15.505Z,100.00
2023-04-10T03:32:43.763Z,100.00
2023-04-10T03:35:11.960Z,100.00
2023-04-10T03:37:42.260Z,100.00
2023-04-10T03:40:11.250Z,100.00
2023-04-10T03:42:39.318Z,100.00
2023-04-10T03:45:07.881Z,100.00
2023-04-10T03:47:36.090Z,100.00
2023-04-10T03:50:07.219Z,100.00
2023-04-10T03:52:50.624Z,100.00
2023-04-10T03:55:21.344Z,100.00
2023-04-10T03:57:50.732Z,100.00
2023-04-10T04:00:22.277Z,100.00
2023-04-10T04:02:52.091Z,100.00
2023-04-10T04:05:42.079Z,100.00
2023-04-10T04:08:36.316Z,100.00
2023-04-10T04:11:36.344Z,100.00
2023-04-10T04:14:22.955Z,100.00
2023-04-10T04:17:05.521Z,100.00
2023-04-10T04:19:56.596Z,100.00
2023-04-10T04:22:36.774Z,100.00
2023-04-10T04:25:26.175Z,100.00
2023-04-10T04:27:54.042Z,100.00
2023-04-10T04:30:44.717Z,100.00
2023-04-10T04:33:27.167Z,100.00
2023-04-10T04:36:04.263Z,100.00
2023-04-10T04:38:37.888Z,100.00
2023-04-10T04:41:14.161Z,100.00
2023-04-10T04:43:55.789Z,100.00
2023-04-10T04:46:29.028Z,100.00
2023-04-10T04:49:32.390Z,100.00
2023-04-10T04:52:16.426Z,100.00
2023-04-10T04:54:58.998Z,100.00
2023-04-10T04:58:00.653Z,100.00
2023-04-10T05:00:54.703Z,100.00
2023-04-10T05:03:32.550Z,100.00
2023-04-10T05:06:15.536Z,100.00
2023-04-10T05:08:52.978Z,100.00
2023-04-10T05:11:31.135Z,100.00
2023-04-10T05:14:35.606Z,100.00
2023-04-10T05:17:31.745Z,100.00
2023-04-10T05:20:22.707Z,100.00
2023-04-10T05:23:06.579Z,100.00
2023-04-10T05:25:55.469Z,100.00
2023-04-10T05:28:51.208Z,100.00
2023-04-10T05:31:40.765Z,100.00
2023-04-10T05:34:38.962Z,100.00
2023-04-10T05:37:13.815Z,100.00
2023-04-10T05:39:52.067Z,100.00
2023-04-10T05:42:38.439Z,100.00
2023-04-10T05:45:22.547Z,100.00
2023-04-10T05:48:03.900Z,100.00
2023-04-10T05:50:50.101Z,100.00
2023-04-10T05:53:33.083Z,100.00
2023-04-10T05:56:23.999Z,100.00
2023-04-10T05:59:30.344Z,100.00
2023-04-10T06:02:07.914Z,100.00
2023-04-10T06:04:37.227Z,100.00
2023-04-10T06:07:06.151Z,100.00
2023-04-10T06:09:34.052Z,100.00
2023-04-10T06:12:02.376Z,100.00
2023-04-10T06:14:30.288Z,100.00
2023-04-10T06:16:58.931Z,100.00
2023-04-10T06:19:26.662Z,100.00
2023-04-10T06:21:55.782Z,100.00
2023-04-10T06:24:23.731Z,100.00
2023-04-10T06:26:52.410Z,99.22
2023-04-10T06:29:20.391Z,100.00
2023-04-10T06:31:48.367Z,99.56
2023-04-10T06:34:17.071Z,98.95
2023-04-10T06:36:56.187Z,100.00
2023-04-10T06:39:24.039Z,100.00
2023-04-10T06:41:51.782Z,97.47
2023-04-10T06:44:43.620Z,97.67
2023-04-10T06:47:11.516Z,95.55
2023-04-10T06:49:39.359Z,93.36
2023-04-10T06:52:11.374Z,94.87
2023-04-10T06:54:39.232Z,94.30
2023-04-10T06:57:06.942Z,93.08
2023-04-10T06:59:35.738Z,92.41
2023-04-10T07:02:04.778Z,92.36
2023-04-10T07:04:33.298Z,91.17
2023-04-10T07:07:01.243Z,88.26
2023-04-10T07:09:30.658Z,87.38
2023-04-10T07:11:58.415Z,89.10
2023-04-10T07:14:26.220Z,87.27
2023-04-10T07:16:54.835Z,84.62
2023-04-10T07:19:22.538Z,83.78
2023-04-10T07:21:50.422Z,85.10
2023-04-10T07:24:18.427Z,87.25
2023-04-10T07:26:47.621Z,86.71
2023-04-10T07:29:15.664Z,81.09
2023-04-10T07:31:43.443Z,77.80
2023-04-10T07:34:12.262Z,75.52
2023-04-10T07:36:40.351Z,74.75
2023-04-10T07:39:08.218Z,73.53
2023-04-10T07:41:36.261Z,73.46
2023-04-10T07:44:06.179Z,77.19
2023-04-10T07:46:33.967Z,78.08
2023-04-10T07:49:01.769Z,73.54
2023-04-10T07:51:30.919Z,72.87
2023-04-10T07:53:58.799Z,71.02
2023-04-10T07:56:26.548Z,70.45
2023-04-10T07:58:54.916Z,73.70
2023-04-10T08:01:24.491Z,70.46
2023-04-10T08:03:52.576Z,66.30
2023-04-10T08:06:20.362Z,71.55
2023-04-10T08:08:50.328Z,69.56
2023-04-10T08:11:25.720Z,64.62
2023-04-10T08:13:53.827Z,67.48
2023-04-10T08:16:25.865Z,64.10
2023-04-10T08:18:54.461Z,65.28
2023-04-10T08:21:23.407Z,62.03
2023-04-10T08:23:52.005Z,60.32
2023-04-10T08:26:21.294Z,60.99
2023-04-10T08:28:50.727Z,62.13
2023-04-10T08:31:19.402Z,62.97
2023-04-10T08:33:48.785Z,63.04
2023-04-10T08:36:20.486Z,61.79
2023-04-10T08:38:48.853Z,61.12
2023-04-10T08:41:18.712Z,59.87
2023-04-10T08:43:49.883Z,61.22
2023-04-10T08:46:17.993Z,59.14
2023-04-10T08:48:54.950Z,57.22
2023-04-10T08:51:27.466Z,54.20
2023-04-10T08:53:59.672Z,55.55
2023-04-10T08:56:28.569Z,54.34
2023-04-10T08:58:56.622Z,53.12
2023-04-10T09:01:25.319Z,49.82
2023-04-10T09:03:55.188Z,51.02
2023-04-10T09:06:23.299Z,49.89
2023-04-10T09:08:51.033Z,47.85
2023-04-10T09:11:18.707Z,49.87
2023-04-10T09:13:49.329Z,50.39
2023-04-10T09:16:17.128Z,48.21
2023-04-10T09:18:47.219Z,48.99
2023-04-10T09:21:18.327Z,47.24
2023-04-10T09:23:47.890Z,45.73
2023-04-10T09:26:26.987Z,46.72
2023-04-10T09:29:02.605Z,47.18
2023-04-10T09:31:33.350Z,47.19
2023-04-10T09:34:16.000Z,45.20
2023-04-10T09:36:53.914Z,44.46
2023-04-10T09:39:21.765Z,44.73
2023-04-10T09:41:50.950Z,44.45
2023-04-10T09:44:20.737Z,45.90
2023-04-10T09:46:49.594Z,43.32
2023-04-10T09:49:17.435Z,40.06
2023-04-10T09:51:47.447Z,42.69
2023-04-10T09:54:15.443Z,37.95
2023-04-10T09:56:47.217Z,38.77
2023-04-10T09:59:16.491Z,39.22
2023-04-10T10:01:45.598Z,37.39
2023-04-10T10:04:17.345Z,36.01
2023-04-10T10:06:47.533Z,36.45
2023-04-10T10:09:16.461Z,35.77
2023-04-10T10:11:44.308Z,37.99
2023-04-10T10:14:19.426Z,36.11
2023-04-10T10:16:50.882Z,36.67
2023-04-10T10:19:26.115Z,38.35
2023-04-10T10:21:57.018Z,38.11
2023-04-10T10:24:27.288Z,40.05
2023-04-10T10:26:57.253Z,37.14
2023-04-10T10:29:25.940Z,36.41
2023-04-10T10:31:54.926Z,36.97
2023-04-10T10:34:25.828Z,36.88
2023-04-10T10:36:55.001Z,36.35
2023-04-10T10:39:30.403Z,37.10
2023-04-10T10:42:06.700Z,36.28
2023-04-10T10:44:43.939Z,36.36
2023-04-10T10:47:19.048Z,36.50
2023-04-10T10:49:54.387Z,36.62
2023-04-10T10:52:42.397Z,34.89
2023-04-10T10:55:31.501Z,34.98
2023-04-10T10:58:01.237Z,35.21
2023-04-10T11:01:06.819Z,34.41
2023-04-10T11:03:38.244Z,36.18
2023-04-10T11:06:08.863Z,34.90
2023-04-10T11:08:48.457Z,33.16
2023-04-10T11:11:18.556Z,31.68
2023-04-10T11:14:17.860Z,31.46
2023-04-10T11:16:47.936Z,31.44
2023-04-10T11:19:19.948Z,29.04
2023-04-10T11:22:03.365Z,28.46
2023-04-10T11:24:53.199Z,29.82
2023-04-10T11:27:53.012Z,28.50
2023-04-10T11:30:35.957Z,26.95
2023-04-10T11:33:05.731Z,27.79
2023-04-10T11:35:34.263Z,27.47
2023-04-10T11:38:16.246Z,27.40
2023-04-10T11:41:01.408Z,26.04
2023-04-10T11:43:29.494Z,23.92
2023-04-10T11:46:01.589Z,27.17
2023-04-10T11:48:29.834Z,26.58
2023-04-10T11:50:57.670Z,27.27
2023-04-10T11:53:26.848Z,26.39
2023-04-10T11:55:56.587Z,28.29
2023-04-10T11:58:27.323Z,23.29
2023-04-10T12:00:59.630Z,25.42
2023-04-10T12:03:38.829Z,24.13
2023-04-10T12:06:09.960Z,23.29
2023-04-10T12:08:39.365Z,23.84
2023-04-10T12:11:09.483Z,25.23
2023-04-10T12:13:39.689Z,23.21
2023-04-10T12:16:09.450Z,24.34
2023-04-10T12:18:37.782Z,22.85
2023-04-10T12:21:08.123Z,22.57
2023-04-10T12:23:39.146Z,21.08
2023-04-10T12:26:10.600Z,21.51
2023-04-10T12:28:41.647Z,23.03
2023-04-10T12:31:10.284Z,23.51
2023-04-10T12:33:38.206Z,22.19
2023-04-10T12:36:06.455Z,24.23
2023-04-10T12:38:38.886Z,23.41
2023-04-10T12:41:08.006Z,23.99
2023-04-10T12:43:37.657Z,25.10
2023-04-10T12:46:08.544Z,25.45
2023-04-10T12:48:36.570Z,25.43
2023-04-10T12:51:05.119Z,24.55
2023-04-10T12:53:32.978Z,25.25
2023-04-10T12:56:03.505Z,26.18
2023-04-10T12:58:32.196Z,26.03
2023-04-10T13:01:04.605Z,25.60
2023-04-10T13:03:34.673Z,26.42
2023-04-10T13:06:03.080Z,25.38
2023-04-10T13:08:32.265Z,25.23
2023-04-10T13:11:02.949Z,23.87
2023-04-10T13:13:32.751Z,24.73
2023-04-10T13:16:00.822Z,25.19
2023-04-10T13:18:28.659Z,26.17
2023-04-10T13:20:57.814Z,24.08
2023-04-10T13:23:25.737Z,25.35
2023-04-10T13:25:53.593Z,22.48
2023-04-10T13:28:21.807Z,23.59
2023-04-10T13:30:49.538Z,23.29
2023-04-10T13:33:17.355Z,22.56
2023-04-10T13:35:45.748Z,23.21
2023-04-10T13:38:15.921Z,22.35
2023-04-10T13:40:43.823Z,22.96
2023-04-10T13:43:14.469Z,23.79
2023-04-10T13:45:42.515Z,23.71
2023-04-10T13:48:10.362Z,24.37
2023-04-10T13:50:38.810Z,23.15
2023-04-10T13:53:08.029Z,23.94
2023-04-10T13:55:38.118Z,25.12
2023-04-10T13:58:07.073Z,24.98
2023-04-10T14:00:34.896Z,24.28
2023-04-10T14:03:02.855Z,23.41
2023-04-10T14:05:32.596Z,22.84
2023-04-10T14:08:02.336Z,22.87
2023-04-10T14:10:30.028Z,25.23
2023-04-10T14:12:59.309Z,24.56
2023-04-10T14:15:27.131Z,25.79
2023-04-10T14:17:55.078Z,25.89
2023-04-10T14:20:22.831Z,24.37
2023-04-10T14:22:50.516Z,25.61
2023-04-10T14:25:18.518Z,24.16
2023-04-10T14:27:46.443Z,26.11
2023-04-10T14:30:15.597Z,26.27
2023-04-10T14:32:43.964Z,26.04
2023-04-10T14:35:12.060Z,25.42
2023-04-10T14:37:39.977Z,25.79
2023-04-10T14:40:09.666Z,26.57
2023-04-10T14:42:37.490Z,25.16
2023-04-10T14:45:06.213Z,25.92
2023-04-10T14:47:36.385Z,26.41
2023-04-10T14:50:04.264Z,26.99
2023-04-10T14:52:31.957Z,25.89
2023-04-10T14:54:59.674Z,26.08
2023-04-10T14:57:28.047Z,26.50
2023-04-10T14:59:55.935Z,26.46
2023-04-10T15:02:23.882Z,26.84
2023-04-10T15:04:53.068Z,25.63
2023-04-10T15:07:20.868Z,26.14
2023-04-10T15:09:48.843Z,26.63
2023-04-10T15:12:16.677Z,26.06
2023-04-10T15:14:44.346Z,25.65
2023-04-10T15:17:12.196Z,26.92
2023-04-10T15:19:40.000Z,28.42
2023-04-10T15:22:09.399Z,27.98
2023-04-10T15:24:49.752Z,27.35
2023-04-10T15:27:20.604Z,26.39
2023-04-10T15:29:48.598Z,28.07
2023-04-10T15:32:18.503Z,28.10
2023-04-10T15:34:46.392Z,28.55
2023-04-10T15:37:15.967Z,29.08
2023-04-10T15:39:47.752Z,27.88
2023-04-10T15:42:16.727Z,28.14
2023-04-10T15:44:48.722Z,28.77
2023-04-10T15:47:16.990Z,29.82
2023-04-10T15:49:44.766Z,30.33
2023-04-10T15:52:12.451Z,28.78
2023-04-10T15:54:42.322Z,28.76
2023-04-10T15:57:10.516Z,30.30
2023-04-10T15:59:40.982Z,30.84
2023-04-10T16:02:08.884Z,29.65
2023-04-10T16:04:36.939Z,30.07
2023-04-10T16:07:04.772Z,30.58
2023-04-10T16:09:35.253Z,32.24
2023-04-10T16:12:04.482Z,29.47
2023-04-10T16:14:33.088Z,29.44
2023-04-10T16:17:00.866Z,29.63
2023-04-10T16:19:30.928Z,30.26
2023-04-10T16:21:58.753Z,30.54
2023-04-10T16:24:26.806Z,30.74
2023-04-10T16:26:54.526Z,30.69
2023-04-10T16:29:23.606Z,30.53
2023-04-10T16:31:51.457Z,31.50
2023-04-10T16:34:19.168Z,32.06
2023-04-10T16:36:47.019Z,32.21
2023-04-10T16:39:14.822Z,31.73
2023-04-10T16:41:42.543Z,31.08
2023-04-10T16:44:10.465Z,32.04
2023-04-10T16:46:39.659Z,33.15
2023-04-10T16:49:07.466Z,31.88
2023-04-10T16:51:35.309Z,32.19
2023-04-10T16:54:03.632Z,33.62
2023-04-10T16:56:32.440Z,33.21
2023-04-10T16:59:01.526Z,32.64
2023-04-10T17:01:29.410Z,33.34
2023-04-10T17:03:58.829Z,33.91
2023-04-10T17:06:26.957Z,34.29
2023-04-10T17:08:57.442Z,34.55
2023-04-10T17:11:25.674Z,34.35
2023-04-10T17:13:56.241Z,35.19
2023-04-10T17:16:24.059Z,35.31
2023-04-10T17:18:52.066Z,36.40
2023-04-10T17:21:21.354Z,35.51
2023-04-10T17:23:49.302Z,35.44
2023-04-10T17:26:18.119Z,35.01
2023-04-10T17:28:46.596Z,36.18
2023-04-10T17:31:15.076Z,36.16
2023-04-10T17:33:42.988Z,36.45
2023-04-10T17:36:12.487Z,36.18
2023-04-10T17:38:42.863Z,37.05
2023-04-10T17:41:11.103Z,35.71
2023-04-10T17:43:38.893Z,35.35
2023-04-10T17:46:07.395Z,35.38
2023-04-10T17:48:35.272Z,36.56
2023-04-10T17:51:06.227Z,38.30
2023-04-10T17:53:35.888Z,37.97
2023-04-10T17:56:05.518Z,38.72
2023-04-10T17:58:33.400Z,38.20
2023-04-10T18:01:01.333Z,38.15
2023-04-10T18:03:29.334Z,37.55
2023-04-10T18:05:57.078Z,36.79
2023-04-10T18:08:24.959Z,36.61
2023-04-10T18:10:52.766Z,37.50
2023-04-10T18:13:21.943Z,37.89
2023-04-10T18:15:49.845Z,37.78
2023-04-10T18:18:17.613Z,37.43
2023-04-10T18:20:45.411Z,38.75
2023-04-10T18:23:13.196Z,37.72
2023-04-10T18:25:40.990Z,37.28
2023-04-10T18:28:15.308Z,36.82
2023-04-10T18:30:46.054Z,36.49
2023-04-10T18:33:14.840Z,35.48
2023-04-10T18:35:42.869Z,35.53
2023-04-10T18:38:10.864Z,36.03
2023-04-10T18:40:39.138Z,36.67
2023-04-10T18:43:06.803Z,36.11
2023-04-10T18:45:37.903Z,37.53
2023-04-10T18:48:09.730Z,36.83
2023-04-10T18:50:39.072Z,37.36
2023-04-10T18:53:06.889Z,37.69
2023-04-10T18:55:34.741Z,37.63
2023-04-10T18:58:02.584Z,37.42
2023-04-10T19:00:32.001Z,37.75
2023-04-10T19:02:59.841Z,37.43
2023-04-10T19:05:32.517Z,38.87
2023-04-10T19:08:04.733Z,38.51
2023-04-10T19:10:32.878Z,40.49
2023-04-10T19:13:00.738Z,40.41
2023-04-10T19:15:28.457Z,40.64
2023-04-10T19:17:56.324Z,41.19
2023-04-10T19:20:49.045Z,42.14
2023-04-10T19:23:16.240Z,43.72
2023-04-10T19:25:47.445Z,45.55
2023-04-10T19:28:18.214Z,45.95
2023-04-10T19:30:46.092Z,45.18
2023-04-10T19:33:13.821Z,45.62
2023-04-10T19:35:44.726Z,45.70
2023-04-10T19:38:12.563Z,45.39
2023-04-10T19:40:41.677Z,46.10
2023-04-10T19:43:09.395Z,47.02
2023-04-10T19:45:37.748Z,48.40
2023-04-10T19:48:06.103Z,48.88
2023-04-10T19:50:33.941Z,49.35
2023-04-10T19:53:01.740Z,49.43
2023-04-10T19:55:29.679Z,50.03
2023-04-10T19:57:58.945Z,49.32
2023-04-10T20:00:26.703Z,48.20
2023-04-10T20:02:54.548Z,48.10
2023-04-10T20:05:39.395Z,48.56
2023-04-10T20:08:07.488Z,48.24
2023-04-10T20:10:35.324Z,47.08
2023-04-10T20:13:06.001Z,48.37
2023-04-10T20:15:33.871Z,48.77
2023-04-10T20:18:01.608Z,48.40
2023-04-10T20:20:29.337Z,50.89
2023-04-10T20:22:57.054Z,51.62
2023-04-10T20:25:37.619Z,52.83
2023-04-10T20:28:10.141Z,51.94
2023-04-10T20:30:42.128Z,53.27
2023-04-10T20:33:09.892Z,54.17
2023-04-10T20:35:37.652Z,55.14
2023-04-10T20:38:05.447Z,57.34
2023-04-10T20:40:33.176Z,58.08
2023-04-10T20:43:00.983Z,59.16
2023-04-10T20:45:30.174Z,60.11
2023-04-10T20:47:58.991Z,59.43
2023-04-10T20:50:26.736Z,60.08
2023-04-10T20:52:54.494Z,61.62
2023-04-10T20:55:22.214Z,63.27
2023-04-10T20:57:50.104Z,63.38
2023-04-10T21:00:18.268Z,63.16
2023-04-10T21:02:47.611Z,61.30
2023-04-10T21:05:15.538Z,63.11
2023-04-10T21:07:43.290Z,62.22
2023-04-10T21:10:11.540Z,58.59
2023-04-10T21:12:39.275Z,59.08
2023-04-10T21:15:08.030Z,61.16
2023-04-10T21:17:35.929Z,60.44
2023-04-10T21:20:05.471Z,60.01
2023-04-10T21:22:34.242Z,61.36
2023-04-10T21:25:04.105Z,61.18
2023-04-10T21:27:33.683Z,64.38
2023-04-10T21:30:01.675Z,69.07
2023-04-10T21:32:29.445Z,71.46
2023-04-10T21:34:57.222Z,69.33
2023-04-10T21:37:26.336Z,67.99
2023-04-10T21:39:54.132Z,65.82
2023-04-10T21:42:22.007Z,65.74
2023-04-10T21:44:49.752Z,65.47
2023-04-10T21:47:17.395Z,66.44
2023-04-10T21:49:45.099Z,66.99
2023-04-10T21:52:12.777Z,66.89
2023-04-10T21:54:41.882Z,67.30
2023-04-10T21:57:09.705Z,68.26
2023-04-10T21:59:37.491Z,68.13
2023-04-10T22:02:05.341Z,69.16
2023-04-10T22:04:34.566Z,70.14
2023-04-10T22:07:03.754Z,71.02
2023-04-10T22:09:33.195Z,70.34
2023-04-10T22:12:02.341Z,71.46
2023-04-10T22:14:30.167Z,72.79
2023-04-10T22:16:57.948Z,72.15
2023-04-10T22:19:26.246Z,70.56
2023-04-10T22:21:53.949Z,71.78
2023-04-10T22:24:21.845Z,70.44
2023-04-10T22:26:49.641Z,71.53
2023-04-10T22:29:21.821Z,73.43
2023-04-10T22:31:49.549Z,72.96
2023-04-10T22:34:17.205Z,72.55
2023-04-10T22:36:44.939Z,72.38
2023-04-10T22:39:13.146Z,72.43
2023-04-10T22:41:42.461Z,74.09
2023-04-10T22:44:10.197Z,73.58
2023-04-10T22:46:39.524Z,72.95
2023-04-10T22:49:07.794Z,73.63
2023-04-10T22:51:35.627Z,74.35
2023-04-10T22:54:03.369Z,75.48
2023-04-10T22:56:31.771Z,74.82
2023-04-10T22:58:59.603Z,74.73
2023-04-10T23:01:27.335Z,74.97
2023-04-10T23:03:56.600Z,80.38
2023-04-10T23:06:24.356Z,81.63
2023-04-10T23:08:52.322Z,81.78
2023-04-10T23:11:20.165Z,81.32
2023-04-10T23:13:48.821Z,82.28
2023-04-10T23:16:16.726Z,81.42
2023-04-10T23:18:44.548Z,81.70
2023-04-10T23:21:13.663Z,81.09
2023-04-10T23:23:41.431Z,81.72
2023-04-10T23:26:11.329Z,80.38
2023-04-10T23:28:39.160Z,82.86
2023-04-10T23:31:08.879Z,83.45
2023-04-10T23:33:36.628Z,85.16
2023-04-10T23:36:05.127Z,87.70
2023-04-10T23:38:34.165Z,87.42
2023-04-10T23:41:03.587Z,87.28
2023-04-10T23:43:31.220Z,87.27
2023-04-10T23:45:59.024Z,88.47
2023-04-10T23:48:26.820Z,97.94
2023-04-10T23:51:03.607Z,100.00
2023-04-10T23:53:31.484Z,100.00
2023-04-10T23:56:46.910Z,100.00
2023-04-10T23:59:17.149Z,100.00
